sensor_id;sensor_type;location;lat;lon;timestamp;temperature;humidity
5846;DHT22;2949;50.778;7.094;2022-08-06T00:01:00;14.70;99.90
5846;DHT22;2949;50.778;7.094;2022-08-06T00:03:26;14.80;99.90
5846;DHT22;2949;50.778;7.094;2022-08-06T00:05:51;14.70;99.90
5846;DHT22;2949;50.778;7.094;2022-08-06T00:08:17;14.70;99.90
5846;DHT22;2949;50.778;7.094;2022-08-06T00:10:43;14.60;99.90
5846;DHT22;2949;50.778;7.094;2022-08-06T00:13:08;14.50;99.90
5846;DHT22;2949;50.778;7.094;2022-08-06T00:15:34;14.40;99.90
5846;DHT22;2949;50.778;7.094;2022-08-06T00:18:00;14.40;99.90
5846;DHT22;2949;50.778;7.094;2022-08-06T00:20:25;14.30;99.90
5846;DHT22;2949;50.778;7.094;2022-08-06T00:22:51;14.30;99.90
5846;DHT22;2949;50.778;7.094;2022-08-06T00:25:16;14.30;99.90
5846;DHT22;2949;50.778;7.094;2022-08-06T00:27:42;14.30;99.90
5846;DHT22;2949;50.778;7.094;2022-08-06T00:30:09;14.20;99.90
5846;DHT22;2949;50.778;7.094;2022-08-06T00:32:35;14.20;99.90
5846;DHT22;2949;50.778;7.094;2022-08-06T00:35:01;14.20;99.90
5846;DHT22;2949;50.778;7.094;2022-08-06T00:37:26;14.10;99.90
5846;DHT22;2949;50.778;7.094;2022-08-06T00:39:58;14.10;99.90
5846;DHT22;2949;50.778;7.094;2022-08-06T00:42:23;14.00;99.90
5846;DHT22;2949;50.778;7.094;2022-08-06T00:44:50;13.90;99.90
5846;DHT22;2949;50.778;7.094;2022-08-06T00:47:15;13.90;99.90
5846;DHT22;2949;50.778;7.094;2022-08-06T00:49:41;13.80;99.90
5846;DHT22;2949;50.778;7.094;2022-08-06T00:52:06;13.80;99.90
5846;DHT22;2949;50.778;7.094;2022-08-06T00:54:32;13.80;99.90
5846;DHT22;2949;50.778;7.094;2022-08-06T00:56:57;13.70;99.90
5846;DHT22;2949;50.778;7.094;2022-08-06T00:59:23;13.70;99.90
5846;DHT22;2949;50.778;7.094;2022-08-06T01:01:48;13.70;99.90
5846;DHT22;2949;50.778;7.094;2022-08-06T01:04:14;13.60;99.90
5846;DHT22;2949;50.778;7.094;2022-08-06T01:06:40;13.60;99.90
5846;DHT22;2949;50.778;7.094;2022-08-06T01:09:06;13.50;99.90
5846;DHT22;2949;50.778;7.094;2022-08-06T01:11:32;13.50;99.90
5846;DHT22;2949;50.778;7.094;2022-08-06T01:13:57;13.40;99.90
5846;DHT22;2949;50.778;7.094;2022-08-06T01:16:43;13.40;99.90
5846;DHT22;2949;50.778;7.094;2022-08-06T01:19:35;13.30;99.90
5846;DHT22;2949;50.778;7.094;2022-08-06T01:27:36;13.10;99.90
5846;DHT22;2949;50.778;7.094;2022-08-06T01:30:16;13.10;99.90
5846;DHT22;2949;50.778;7.094;2022-08-06T01:33:00;13.00;99.90
5846;DHT22;2949;50.778;7.094;2022-08-06T01:35:42;13.00;99.90
5846;DHT22;2949;50.778;7.094;2022-08-06T01:38:23;12.90;99.90
5846;DHT22;2949;50.778;7.094;2022-08-06T01:40:51;12.90;99.90
5846;DHT22;2949;50.778;7.094;2022-08-06T01:43:19;12.80;99.90
5846;DHT22;2949;50.778;7.094;2022-08-06T01:45:46;12.80;99.90
5846;DHT22;2949;50.778;7.094;2022-08-06T01:48:17;12.80;99.90
5846;DHT22;2949;50.778;7.094;2022-08-06T01:50:45;12.70;99.90
5846;DHT22;2949;50.778;7.094;2022-08-06T01:53:19;12.70;99.90
5846;DHT22;2949;50.778;7.094;2022-08-06T01:55:50;12.70;99.90
5846;DHT22;2949;50.778;7.094;2022-08-06T01:58:21;12.60;99.90
5846;DHT22;2949;50.778;7.094;2022-08-06T02:00:48;12.50;99.90
5846;DHT22;2949;50.778;7.094;2022-08-06T02:03:38;12.50;99.90
5846;DHT22;2949;50.778;7.094;2022-08-06T02:06:07;12.40;99.90
5846;DHT22;2949;50.778;7.094;2022-08-06T02:08:36;12.40;99.90
5846;DHT22;2949;50.778;7.094;2022-08-06T02:11:04;12.40;99.90
5846;DHT22;2949;50.778;7.094;2022-08-06T02:13:33;12.30;99.90
5846;DHT22;2949;50.778;7.094;2022-08-06T02:16:02;12.30;99.90
5846;DHT22;2949;50.778;7.094;2022-08-06T02:18:34;12.30;99.90
5846;DHT22;2949;50.778;7.094;2022-08-06T02:21:03;12.30;99.90
5846;DHT22;2949;50.778;7.094;2022-08-06T02:23:31;12.20;99.90
5846;DHT22;2949;50.778;7.094;2022-08-06T02:25:57;12.20;99.90
5846;DHT22;2949;50.778;7.094;2022-08-06T02:28:24;12.20;99.90
5846;DHT22;2949;50.778;7.094;2022-08-06T02:30:53;12.10;99.90
5846;DHT22;2949;50.778;7.094;2022-08-06T02:33:19;12.10;99.90
5846;DHT22;2949;50.778;7.094;2022-08-06T02:36:13;12.00;99.90
5846;DHT22;2949;50.778;7.094;2022-08-06T02:43:40;11.90;99.90
5846;DHT22;2949;50.778;7.094;2022-08-06T02:46:13;11.90;99.90
5846;DHT22;2949;50.778;7.094;2022-08-06T02:48:50;11.90;99.90
5846;DHT22;2949;50.778;7.094;2022-08-06T02:51:19;11.90;99.90
5846;DHT22;2949;50.778;7.094;2022-08-06T02:53:59;11.80;99.90
5846;DHT22;2949;50.778;7.094;2022-08-06T02:56:27;11.80;99.90
5846;DHT22;2949;50.778;7.094;2022-08-06T02:58:55;11.80;99.90
5846;DHT22;2949;50.778;7.094;2022-08-06T03:01:30;11.80;99.90
5846;DHT22;2949;50.778;7.094;2022-08-06T03:03:57;11.70;99.90
5846;DHT22;2949;50.778;7.094;2022-08-06T03:06:26;11.70;99.90
5846;DHT22;2949;50.778;7.094;2022-08-06T03:08:54;11.70;99.90
5846;DHT22;2949;50.778;7.094;2022-08-06T03:11:22;11.70;99.90
5846;DHT22;2949;50.778;7.094;2022-08-06T03:13:48;11.70;99.90
5846;DHT22;2949;50.778;7.094;2022-08-06T03:16:15;11.70;99.90
5846;DHT22;2949;50.778;7.094;2022-08-06T03:18:43;11.70;99.90
5846;DHT22;2949;50.778;7.094;2022-08-06T03:21:09;11.70;99.90
5846;DHT22;2949;50.778;7.094;2022-08-06T03:23:36;11.70;99.90
5846;DHT22;2949;50.778;7.094;2022-08-06T03:26:03;11.60;99.90
5846;DHT22;2949;50.778;7.094;2022-08-06T03:28:31;11.60;99.90
5846;DHT22;2949;50.778;7.094;2022-08-06T03:30:59;11.60;99.90
5846;DHT22;2949;50.778;7.094;2022-08-06T03:33:26;11.60;99.90
5846;DHT22;2949;50.778;7.094;2022-08-06T03:35:53;11.60;99.90
5846;DHT22;2949;50.778;7.094;2022-08-06T03:38:20;11.50;99.90
5846;DHT22;2949;50.778;7.094;2022-08-06T03:40:47;11.50;99.90
5846;DHT22;2949;50.778;7.094;2022-08-06T03:43:13;11.50;99.90
5846;DHT22;2949;50.778;7.094;2022-08-06T03:45:44;11.40;99.90
5846;DHT22;2949;50.778;7.094;2022-08-06T03:48:15;11.40;99.90
5846;DHT22;2949;50.778;7.094;2022-08-06T03:50:44;11.30;99.90
5846;DHT22;2949;50.778;7.094;2022-08-06T03:53:17;11.30;99.90
5846;DHT22;2949;50.778;7.094;2022-08-06T03:55:46;11.30;99.90
5846;DHT22;2949;50.778;7.094;2022-08-06T03:58:14;11.40;99.90
5846;DHT22;2949;50.778;7.094;2022-08-06T04:00:45;11.30;99.90
5846;DHT22;2949;50.778;7.094;2022-08-06T04:03:13;11.30;99.90
5846;DHT22;2949;50.778;7.094;2022-08-06T04:05:41;11.30;99.90
5846;DHT22;2949;50.778;7.094;2022-08-06T04:08:09;11.30;99.90
5846;DHT22;2949;50.778;7.094;2022-08-06T04:10:38;11.20;99.90
5846;DHT22;2949;50.778;7.094;2022-08-06T04:13:07;11.10;99.90
5846;DHT22;2949;50.778;7.094;2022-08-06T04:15:35;11.20;99.90
5846;DHT22;2949;50.778;7.094;2022-08-06T04:18:01;11.20;99.90
5846;DHT22;2949;50.778;7.094;2022-08-06T04:20:28;11.20;99.90
5846;DHT22;2949;50.778;7.094;2022-08-06T04:22:56;11.20;99.90
5846;DHT22;2949;50.778;7.094;2022-08-06T04:25:23;11.30;99.90
5846;DHT22;2949;50.778;7.094;2022-08-06T04:27:50;11.30;99.90
5846;DHT22;2949;50.778;7.094;2022-08-06T04:30:17;11.30;99.90
5846;DHT22;2949;50.778;7.094;2022-08-06T04:32:43;11.40;99.90
5846;DHT22;2949;50.778;7.094;2022-08-06T04:35:10;11.40;99.90
5846;DHT22;2949;50.778;7.094;2022-08-06T04:37:36;11.40;99.90
5846;DHT22;2949;50.778;7.094;2022-08-06T04:40:03;11.50;99.90
5846;DHT22;2949;50.778;7.094;2022-08-06T04:42:28;11.50;99.90
5846;DHT22;2949;50.778;7.094;2022-08-06T04:44:54;11.60;99.90
5846;DHT22;2949;50.778;7.094;2022-08-06T04:47:21;11.60;99.90
5846;DHT22;2949;50.778;7.094;2022-08-06T04:49:47;11.70;99.90
5846;DHT22;2949;50.778;7.094;2022-08-06T04:52:23;11.80;99.90
5846;DHT22;2949;50.778;7.094;2022-08-06T04:54:49;11.90;99.90
5846;DHT22;2949;50.778;7.094;2022-08-06T04:57:14;11.90;99.90
5846;DHT22;2949;50.778;7.094;2022-08-06T04:59:40;12.00;99.90
5846;DHT22;2949;50.778;7.094;2022-08-06T05:02:05;12.10;99.90
5846;DHT22;2949;50.778;7.094;2022-08-06T05:04:32;12.20;99.90
5846;DHT22;2949;50.778;7.094;2022-08-06T05:07:15;12.20;99.90
5846;DHT22;2949;50.778;7.094;2022-08-06T05:09:42;12.30;99.90
5846;DHT22;2949;50.778;7.094;2022-08-06T05:12:21;12.40;99.90
5846;DHT22;2949;50.778;7.094;2022-08-06T05:15:10;12.50;99.90
5846;DHT22;2949;50.778;7.094;2022-08-06T05:17:42;12.60;99.90
5846;DHT22;2949;50.778;7.094;2022-08-06T05:20:16;12.60;99.90
5846;DHT22;2949;50.778;7.094;2022-08-06T05:22:44;12.80;99.90
5846;DHT22;2949;50.778;7.094;2022-08-06T05:25:11;12.90;99.90
5846;DHT22;2949;50.778;7.094;2022-08-06T05:27:36;13.00;99.90
5846;DHT22;2949;50.778;7.094;2022-08-06T05:30:06;13.10;99.90
5846;DHT22;2949;50.778;7.094;2022-08-06T05:32:43;13.20;99.90
5846;DHT22;2949;50.778;7.094;2022-08-06T05:35:09;13.30;99.90
5846;DHT22;2949;50.778;7.094;2022-08-06T05:37:34;13.50;99.90
5846;DHT22;2949;50.778;7.094;2022-08-06T05:40:00;13.60;99.90
5846;DHT22;2949;50.778;7.094;2022-08-06T05:42:26;13.60;99.90
5846;DHT22;2949;50.778;7.094;2022-08-06T05:44:51;13.70;99.90
5846;DHT22;2949;50.778;7.094;2022-08-06T05:47:33;13.80;99.90
5846;DHT22;2949;50.778;7.094;2022-08-06T05:50:12;13.80;99.90
5846;DHT22;2949;50.778;7.094;2022-08-06T05:52:56;13.90;99.90
5846;DHT22;2949;50.778;7.094;2022-08-06T05:55:30;14.00;99.90
5846;DHT22;2949;50.778;7.094;2022-08-06T05:57:59;14.20;99.90
5846;DHT22;2949;50.778;7.094;2022-08-06T06:00:29;14.30;99.90
5846;DHT22;2949;50.778;7.094;2022-08-06T06:02:56;14.50;99.90
5846;DHT22;2949;50.778;7.094;2022-08-06T06:05:24;14.60;99.90
5846;DHT22;2949;50.778;7.094;2022-08-06T06:07:51;14.90;99.90
5846;DHT22;2949;50.778;7.094;2022-08-06T06:10:18;15.30;99.90
5846;DHT22;2949;50.778;7.094;2022-08-06T06:12:44;17.60;99.90
5846;DHT22;2949;50.778;7.094;2022-08-06T06:15:12;21.10;99.90
5846;DHT22;2949;50.778;7.094;2022-08-06T06:17:51;23.70;99.90
5846;DHT22;2949;50.778;7.094;2022-08-06T06:23:08;27.90;92.20
5846;DHT22;2949;50.778;7.094;2022-08-06T06:25:48;29.30;84.90
5846;DHT22;2949;50.778;7.094;2022-08-06T06:28:24;30.70;76.10
5846;DHT22;2949;50.778;7.094;2022-08-06T06:33:45;33.00;62.10
5846;DHT22;2949;50.778;7.094;2022-08-06T06:38:59;32.50;56.90
5846;DHT22;2949;50.778;7.094;2022-08-06T06:41:39;32.90;57.30
5846;DHT22;2949;50.778;7.094;2022-08-06T06:44:13;33.70;54.00
5846;DHT22;2949;50.778;7.094;2022-08-06T06:49:37;33.60;53.60
5846;DHT22;2949;50.778;7.094;2022-08-06T06:52:34;34.70;51.10
5846;DHT22;2949;50.778;7.094;2022-08-06T06:55:10;34.40;49.40
5846;DHT22;2949;50.778;7.094;2022-08-06T06:57:43;34.30;50.40
5846;DHT22;2949;50.778;7.094;2022-08-06T07:00:12;35.00;47.80
5846;DHT22;2949;50.778;7.094;2022-08-06T07:02:38;35.60;47.50
5846;DHT22;2949;50.778;7.094;2022-08-06T07:05:07;35.90;46.00
5846;DHT22;2949;50.778;7.094;2022-08-06T07:07:35;35.70;46.90
5846;DHT22;2949;50.778;7.094;2022-08-06T07:10:04;35.80;46.70
5846;DHT22;2949;50.778;7.094;2022-08-06T07:12:32;36.20;45.70
5846;DHT22;2949;50.778;7.094;2022-08-06T07:15:02;36.40;44.40
5846;DHT22;2949;50.778;7.094;2022-08-06T07:17:30;36.70;44.90
5846;DHT22;2949;50.778;7.094;2022-08-06T07:19:58;36.80;42.70
5846;DHT22;2949;50.778;7.094;2022-08-06T07:22:24;36.70;41.60
5846;DHT22;2949;50.778;7.094;2022-08-06T07:24:52;36.00;43.20
5846;DHT22;2949;50.778;7.094;2022-08-06T07:27:19;36.20;43.20
5846;DHT22;2949;50.778;7.094;2022-08-06T07:29:46;36.00;42.90
5846;DHT22;2949;50.778;7.094;2022-08-06T07:32:13;36.30;42.60
5846;DHT22;2949;50.778;7.094;2022-08-06T07:34:40;36.50;43.30
5846;DHT22;2949;50.778;7.094;2022-08-06T07:37:07;37.20;41.70
5846;DHT22;2949;50.778;7.094;2022-08-06T07:39:36;37.40;41.70
5846;DHT22;2949;50.778;7.094;2022-08-06T07:42:07;37.90;40.60
5846;DHT22;2949;50.778;7.094;2022-08-06T07:44:39;37.60;40.50
5846;DHT22;2949;50.778;7.094;2022-08-06T07:47:08;37.00;40.60
5846;DHT22;2949;50.778;7.094;2022-08-06T07:49:40;36.80;40.10
5846;DHT22;2949;50.778;7.094;2022-08-06T07:52:07;36.10;40.10
5846;DHT22;2949;50.778;7.094;2022-08-06T07:54:34;35.40;41.40
5846;DHT22;2949;50.778;7.094;2022-08-06T07:57:00;35.50;41.00
5846;DHT22;2949;50.778;7.094;2022-08-06T07:59:27;36.10;40.80
5846;DHT22;2949;50.778;7.094;2022-08-06T08:01:52;36.70;39.70
5846;DHT22;2949;50.778;7.094;2022-08-06T08:04:19;35.10;40.00
5846;DHT22;2949;50.778;7.094;2022-08-06T08:07:04;33.00;42.80
5846;DHT22;2949;50.778;7.094;2022-08-06T08:09:31;32.70;44.30
5846;DHT22;2949;50.778;7.094;2022-08-06T08:11:57;31.00;43.40
5846;DHT22;2949;50.778;7.094;2022-08-06T08:14:24;29.70;46.70
5846;DHT22;2949;50.778;7.094;2022-08-06T08:16:50;28.00;49.10
5846;DHT22;2949;50.778;7.094;2022-08-06T08:19:30;27.00;51.70
5846;DHT22;2949;50.778;7.094;2022-08-06T08:22:00;26.20;54.20
5846;DHT22;2949;50.778;7.094;2022-08-06T08:24:28;28.10;52.00
5846;DHT22;2949;50.778;7.094;2022-08-06T08:26:54;29.10;50.10
5846;DHT22;2949;50.778;7.094;2022-08-06T08:29:20;30.80;47.20
5846;DHT22;2949;50.778;7.094;2022-08-06T08:31:46;31.50;45.50
5846;DHT22;2949;50.778;7.094;2022-08-06T08:34:12;32.40;44.80
5846;DHT22;2949;50.778;7.094;2022-08-06T08:36:38;33.60;43.60
5846;DHT22;2949;50.778;7.094;2022-08-06T08:39:06;34.40;42.50
5846;DHT22;2949;50.778;7.094;2022-08-06T08:42:00;34.60;41.50
5846;DHT22;2949;50.778;7.094;2022-08-06T08:44:27;33.80;40.40
5846;DHT22;2949;50.778;7.094;2022-08-06T08:46:58;32.30;41.40
5846;DHT22;2949;50.778;7.094;2022-08-06T08:51:56;34.40;40.60
5846;DHT22;2949;50.778;7.094;2022-08-06T08:54:24;33.70;38.60
5846;DHT22;2949;50.778;7.094;2022-08-06T08:56:51;32.00;40.80
5846;DHT22;2949;50.778;7.094;2022-08-06T08:59:18;32.10;41.40
5846;DHT22;2949;50.778;7.094;2022-08-06T09:01:44;33.00;41.00
5846;DHT22;2949;50.778;7.094;2022-08-06T09:04:10;34.10;40.00
5846;DHT22;2949;50.778;7.094;2022-08-06T09:06:36;34.80;38.40
5846;DHT22;2949;50.778;7.094;2022-08-06T09:09:04;34.20;38.80
5846;DHT22;2949;50.778;7.094;2022-08-06T09:11:31;32.20;39.40
5846;DHT22;2949;50.778;7.094;2022-08-06T09:14:00;30.30;41.40
5846;DHT22;2949;50.778;7.094;2022-08-06T09:16:25;29.80;42.20
5846;DHT22;2949;50.778;7.094;2022-08-06T09:18:51;30.10;42.30
5846;DHT22;2949;50.778;7.094;2022-08-06T09:21:18;31.20;42.10
5846;DHT22;2949;50.778;7.094;2022-08-06T09:23:43;30.80;40.40
5846;DHT22;2949;50.778;7.094;2022-08-06T09:26:09;29.00;42.80
5846;DHT22;2949;50.778;7.094;2022-08-06T09:28:35;28.10;43.80
5846;DHT22;2949;50.778;7.094;2022-08-06T09:31:04;29.30;44.40
5846;DHT22;2949;50.778;7.094;2022-08-06T09:33:34;30.40;41.60
5846;DHT22;2949;50.778;7.094;2022-08-06T09:36:03;29.60;41.40
5846;DHT22;2949;50.778;7.094;2022-08-06T09:38:29;30.40;40.80
5846;DHT22;2949;50.778;7.094;2022-08-06T09:41:09;31.50;40.10
5846;DHT22;2949;50.778;7.094;2022-08-06T09:43:36;30.80;39.90
5846;DHT22;2949;50.778;7.094;2022-08-06T09:46:02;31.40;39.60
5846;DHT22;2949;50.778;7.094;2022-08-06T09:48:28;32.00;38.80
5846;DHT22;2949;50.778;7.094;2022-08-06T09:50:53;32.10;39.30
5846;DHT22;2949;50.778;7.094;2022-08-06T09:53:19;32.80;38.50
5846;DHT22;2949;50.778;7.094;2022-08-06T09:55:47;33.30;38.90
5846;DHT22;2949;50.778;7.094;2022-08-06T09:58:13;34.00;38.60
5846;DHT22;2949;50.778;7.094;2022-08-06T10:00:39;34.00;38.20
5846;DHT22;2949;50.778;7.094;2022-08-06T10:03:07;34.20;38.00
5846;DHT22;2949;50.778;7.094;2022-08-06T10:05:36;34.60;37.80
5846;DHT22;2949;50.778;7.094;2022-08-06T10:08:10;33.10;38.10
5846;DHT22;2949;50.778;7.094;2022-08-06T10:13:18;29.00;41.90
5846;DHT22;2949;50.778;7.094;2022-08-06T10:15:45;27.10;44.90
5846;DHT22;2949;50.778;7.094;2022-08-06T10:18:30;25.80;48.00
5846;DHT22;2949;50.778;7.094;2022-08-06T10:21:09;25.20;49.70
5846;DHT22;2949;50.778;7.094;2022-08-06T10:23:37;26.80;49.10
5846;DHT22;2949;50.778;7.094;2022-08-06T10:26:06;29.10;46.30
5846;DHT22;2949;50.778;7.094;2022-08-06T10:28:34;30.60;42.90
5846;DHT22;2949;50.778;7.094;2022-08-06T10:31:06;30.20;41.90
5846;DHT22;2949;50.778;7.094;2022-08-06T10:33:40;28.80;42.70
5846;DHT22;2949;50.778;7.094;2022-08-06T10:36:09;27.30;44.70
5846;DHT22;2949;50.778;7.094;2022-08-06T10:38:38;26.10;46.70
5846;DHT22;2949;50.778;7.094;2022-08-06T10:41:10;25.40;47.80
5846;DHT22;2949;50.778;7.094;2022-08-06T10:43:37;25.80;48.30
5846;DHT22;2949;50.778;7.094;2022-08-06T10:46:08;27.30;47.20
5846;DHT22;2949;50.778;7.094;2022-08-06T10:48:38;28.50;45.10
5846;DHT22;2949;50.778;7.094;2022-08-06T10:51:06;28.80;43.30
5846;DHT22;2949;50.778;7.094;2022-08-06T10:53:37;29.50;42.10
5846;DHT22;2949;50.778;7.094;2022-08-06T10:56:07;29.90;41.40
5846;DHT22;2949;50.778;7.094;2022-08-06T10:58:34;30.30;40.50
5846;DHT22;2949;50.778;7.094;2022-08-06T11:01:21;30.30;38.70
5846;DHT22;2949;50.778;7.094;2022-08-06T11:06:55;28.10;41.90
5846;DHT22;2949;50.778;7.094;2022-08-06T11:12:24;27.00;44.20
5846;DHT22;2949;50.778;7.094;2022-08-06T11:14:52;26.70;43.40
5846;DHT22;2949;50.778;7.094;2022-08-06T11:17:18;26.20;44.70
5846;DHT22;2949;50.778;7.094;2022-08-06T11:19:46;26.20;45.10
5846;DHT22;2949;50.778;7.094;2022-08-06T11:22:36;26.60;44.60
5846;DHT22;2949;50.778;7.094;2022-08-06T11:25:03;26.70;44.70
5846;DHT22;2949;50.778;7.094;2022-08-06T11:27:52;26.60;44.70
5846;DHT22;2949;50.778;7.094;2022-08-06T11:30:19;26.40;44.50
5846;DHT22;2949;50.778;7.094;2022-08-06T11:32:50;25.70;45.10
5846;DHT22;2949;50.778;7.094;2022-08-06T11:38:06;24.50;47.20
5846;DHT22;2949;50.778;7.094;2022-08-06T11:40:58;24.20;47.00
5846;DHT22;2949;50.778;7.094;2022-08-06T11:43:44;23.80;47.80
5846;DHT22;2949;50.778;7.094;2022-08-06T11:46:22;24.20;48.10
5846;DHT22;2949;50.778;7.094;2022-08-06T11:54:27;25.80;45.20
5846;DHT22;2949;50.778;7.094;2022-08-06T12:01:57;24.20;48.00
5846;DHT22;2949;50.778;7.094;2022-08-06T12:09:43;23.60;49.00
5846;DHT22;2949;50.778;7.094;2022-08-06T12:12:42;24.20;48.70
5846;DHT22;2949;50.778;7.094;2022-08-06T12:20:36;25.60;44.10
5846;DHT22;2949;50.778;7.094;2022-08-06T12:23:05;25.90;44.80
5846;DHT22;2949;50.778;7.094;2022-08-06T12:25:36;26.10;44.40
5846;DHT22;2949;50.778;7.094;2022-08-06T12:28:03;26.00;44.70
5846;DHT22;2949;50.778;7.094;2022-08-06T12:30:48;25.80;41.60
5846;DHT22;2949;50.778;7.094;2022-08-06T12:33:15;25.10;42.70
5846;DHT22;2949;50.778;7.094;2022-08-06T12:35:58;24.70;43.70
5846;DHT22;2949;50.778;7.094;2022-08-06T12:38:28;24.80;41.80
5846;DHT22;2949;50.778;7.094;2022-08-06T12:41:06;24.90;43.60
5846;DHT22;2949;50.778;7.094;2022-08-06T12:43:33;24.90;43.90
5846;DHT22;2949;50.778;7.094;2022-08-06T12:46:04;25.00;45.40
5846;DHT22;2949;50.778;7.094;2022-08-06T12:48:32;24.90;44.80
5846;DHT22;2949;50.778;7.094;2022-08-06T12:51:06;24.90;45.70
5846;DHT22;2949;50.778;7.094;2022-08-06T12:53:32;24.70;46.00
5846;DHT22;2949;50.778;7.094;2022-08-06T12:56:02;24.40;46.00
5846;DHT22;2949;50.778;7.094;2022-08-06T12:58:34;24.40;46.20
5846;DHT22;2949;50.778;7.094;2022-08-06T13:01:01;24.40;45.50
5846;DHT22;2949;50.778;7.094;2022-08-06T13:03:28;24.40;45.10
5846;DHT22;2949;50.778;7.094;2022-08-06T13:05:57;24.50;45.30
5846;DHT22;2949;50.778;7.094;2022-08-06T13:08:24;24.50;45.90
5846;DHT22;2949;50.778;7.094;2022-08-06T13:10:51;24.50;45.20
5846;DHT22;2949;50.778;7.094;2022-08-06T13:13:18;24.80;46.10
5846;DHT22;2949;50.778;7.094;2022-08-06T13:16:06;24.90;45.40
5846;DHT22;2949;50.778;7.094;2022-08-06T13:18:32;24.80;45.60
5846;DHT22;2949;50.778;7.094;2022-08-06T13:20:58;24.80;45.20
5846;DHT22;2949;50.778;7.094;2022-08-06T13:23:37;24.90;44.50
5846;DHT22;2949;50.778;7.094;2022-08-06T13:26:19;25.00;42.50
5846;DHT22;2949;50.778;7.094;2022-08-06T13:31:34;24.80;43.20
5846;DHT22;2949;50.778;7.094;2022-08-06T13:34:04;24.60;42.90
5846;DHT22;2949;50.778;7.094;2022-08-06T13:36:31;24.50;44.10
5846;DHT22;2949;50.778;7.094;2022-08-06T13:38:57;24.50;44.40
5846;DHT22;2949;50.778;7.094;2022-08-06T13:41:28;24.90;44.50
5846;DHT22;2949;50.778;7.094;2022-08-06T13:43:57;25.20;44.90
5846;DHT22;2949;50.778;7.094;2022-08-06T13:46:25;25.40;44.20
5846;DHT22;2949;50.778;7.094;2022-08-06T13:48:53;25.40;44.00
5846;DHT22;2949;50.778;7.094;2022-08-06T13:51:21;25.30;44.10
5846;DHT22;2949;50.778;7.094;2022-08-06T13:53:47;25.20;44.20
5846;DHT22;2949;50.778;7.094;2022-08-06T13:56:16;24.90;44.30
5846;DHT22;2949;50.778;7.094;2022-08-06T13:58:42;24.70;43.60
5846;DHT22;2949;50.778;7.094;2022-08-06T14:01:11;24.70;45.00
5846;DHT22;2949;50.778;7.094;2022-08-06T14:03:38;24.80;44.10
5846;DHT22;2949;50.778;7.094;2022-08-06T14:06:03;24.80;44.20
5846;DHT22;2949;50.778;7.094;2022-08-06T14:08:29;25.00;43.40
5846;DHT22;2949;50.778;7.094;2022-08-06T14:10:54;25.10;43.30
5846;DHT22;2949;50.778;7.094;2022-08-06T14:13:20;24.90;42.50
5846;DHT22;2949;50.778;7.094;2022-08-06T14:15:48;24.70;43.20
5846;DHT22;2949;50.778;7.094;2022-08-06T14:18:17;24.70;43.20
5846;DHT22;2949;50.778;7.094;2022-08-06T14:20:44;24.50;43.30
5846;DHT22;2949;50.778;7.094;2022-08-06T14:23:10;24.40;44.60
5846;DHT22;2949;50.778;7.094;2022-08-06T14:25:36;24.40;43.50
5846;DHT22;2949;50.778;7.094;2022-08-06T14:28:03;24.50;44.30
5846;DHT22;2949;50.778;7.094;2022-08-06T14:30:29;24.70;44.20
5846;DHT22;2949;50.778;7.094;2022-08-06T14:32:56;24.80;44.50
5846;DHT22;2949;50.778;7.094;2022-08-06T14:35:21;24.90;44.00
5846;DHT22;2949;50.778;7.094;2022-08-06T14:37:47;24.70;43.80
5846;DHT22;2949;50.778;7.094;2022-08-06T14:40:14;24.90;43.70
5846;DHT22;2949;50.778;7.094;2022-08-06T14:42:40;24.80;43.30
5846;DHT22;2949;50.778;7.094;2022-08-06T14:45:24;24.80;43.10
5846;DHT22;2949;50.778;7.094;2022-08-06T14:47:50;24.80;42.80
5846;DHT22;2949;50.778;7.094;2022-08-06T14:50:16;24.70;43.30
5846;DHT22;2949;50.778;7.094;2022-08-06T14:52:44;24.60;42.50
5846;DHT22;2949;50.778;7.094;2022-08-06T14:55:09;24.50;42.90
5846;DHT22;2949;50.778;7.094;2022-08-06T14:57:36;24.50;43.10
5846;DHT22;2949;50.778;7.094;2022-08-06T15:00:07;24.60;43.00
5846;DHT22;2949;50.778;7.094;2022-08-06T15:02:33;24.50;42.90
5846;DHT22;2949;50.778;7.094;2022-08-06T15:04:59;24.30;43.20
5846;DHT22;2949;50.778;7.094;2022-08-06T15:07:25;24.20;43.30
5846;DHT22;2949;50.778;7.094;2022-08-06T15:09:50;24.20;44.10
5846;DHT22;2949;50.778;7.094;2022-08-06T15:12:16;24.20;44.20
5846;DHT22;2949;50.778;7.094;2022-08-06T15:14:42;24.20;44.70
5846;DHT22;2949;50.778;7.094;2022-08-06T15:17:08;24.40;45.20
5846;DHT22;2949;50.778;7.094;2022-08-06T15:19:33;24.60;44.40
5846;DHT22;2949;50.778;7.094;2022-08-06T15:21:59;24.60;44.40
5846;DHT22;2949;50.778;7.094;2022-08-06T15:24:25;24.70;43.90
5846;DHT22;2949;50.778;7.094;2022-08-06T15:26:52;24.70;44.00
5846;DHT22;2949;50.778;7.094;2022-08-06T15:29:20;24.50;43.40
5846;DHT22;2949;50.778;7.094;2022-08-06T15:31:46;24.50;43.50
5846;DHT22;2949;50.778;7.094;2022-08-06T15:34:12;24.50;43.50
5846;DHT22;2949;50.778;7.094;2022-08-06T15:36:38;24.40;43.90
5846;DHT22;2949;50.778;7.094;2022-08-06T15:39:04;24.40;43.80
5846;DHT22;2949;50.778;7.094;2022-08-06T15:41:29;24.60;42.70
5846;DHT22;2949;50.778;7.094;2022-08-06T15:43:57;24.50;43.10
5846;DHT22;2949;50.778;7.094;2022-08-06T15:46:22;24.60;43.20
5846;DHT22;2949;50.778;7.094;2022-08-06T15:48:48;24.50;42.10
5846;DHT22;2949;50.778;7.094;2022-08-06T15:51:13;24.40;42.50
5846;DHT22;2949;50.778;7.094;2022-08-06T15:53:39;24.30;42.70
5846;DHT22;2949;50.778;7.094;2022-08-06T15:56:05;24.30;43.70
5846;DHT22;2949;50.778;7.094;2022-08-06T15:58:30;24.50;44.40
5846;DHT22;2949;50.778;7.094;2022-08-06T16:00:56;24.60;44.00
5846;DHT22;2949;50.778;7.094;2022-08-06T16:03:22;24.80;42.80
5846;DHT22;2949;50.778;7.094;2022-08-06T16:05:47;24.70;42.70
5846;DHT22;2949;50.778;7.094;2022-08-06T16:08:13;24.70;42.90
5846;DHT22;2949;50.778;7.094;2022-08-06T16:10:46;24.80;42.70
5846;DHT22;2949;50.778;7.094;2022-08-06T16:13:13;24.80;43.40
5846;DHT22;2949;50.778;7.094;2022-08-06T16:15:49;24.80;43.20
5846;DHT22;2949;50.778;7.094;2022-08-06T16:18:16;24.70;43.30
5846;DHT22;2949;50.778;7.094;2022-08-06T16:20:43;24.80;43.40
5846;DHT22;2949;50.778;7.094;2022-08-06T16:23:11;24.90;43.50
5846;DHT22;2949;50.778;7.094;2022-08-06T16:25:37;24.90;42.40
5846;DHT22;2949;50.778;7.094;2022-08-06T16:28:04;25.00;42.60
5846;DHT22;2949;50.778;7.094;2022-08-06T16:30:30;25.10;42.30
5846;DHT22;2949;50.778;7.094;2022-08-06T16:32:55;25.20;41.40
5846;DHT22;2949;50.778;7.094;2022-08-06T16:35:21;25.30;41.30
5846;DHT22;2949;50.778;7.094;2022-08-06T16:37:47;25.50;41.20
5846;DHT22;2949;50.778;7.094;2022-08-06T16:40:12;25.50;41.20
5846;DHT22;2949;50.778;7.094;2022-08-06T16:42:38;25.60;41.50
5846;DHT22;2949;50.778;7.094;2022-08-06T16:45:05;25.70;41.10
5846;DHT22;2949;50.778;7.094;2022-08-06T16:47:30;25.60;41.00
5846;DHT22;2949;50.778;7.094;2022-08-06T16:49:57;25.80;41.00
5846;DHT22;2949;50.778;7.094;2022-08-06T16:52:23;25.80;41.50
5846;DHT22;2949;50.778;7.094;2022-08-06T16:54:48;25.60;42.00
5846;DHT22;2949;50.778;7.094;2022-08-06T16:57:14;25.50;42.20
5846;DHT22;2949;50.778;7.094;2022-08-06T16:59:39;25.30;41.60
5846;DHT22;2949;50.778;7.094;2022-08-06T17:02:06;25.00;42.70
5846;DHT22;2949;50.778;7.094;2022-08-06T17:04:50;24.70;42.90
5846;DHT22;2949;50.778;7.094;2022-08-06T17:07:16;24.40;43.20
5846;DHT22;2949;50.778;7.094;2022-08-06T17:09:41;24.20;43.20
5846;DHT22;2949;50.778;7.094;2022-08-06T17:12:07;23.90;43.50
5846;DHT22;2949;50.778;7.094;2022-08-06T17:14:32;23.60;43.90